Time,TemperatureF,DewpointF,PressureIn,WindDirection,WindDirectionDegrees,WindSpeedMPH,WindSpeedGustMPH,Humidity,HourlyPrecipIn,Conditions,Clouds,dailyrainin,SoftwareType,DateUTC
2013-05-22 00:01:00,39.0,25.0,-100.00,SSE,163,3.0,5.0,57,0.00,,,0.11,,2013-05-22 06:01:00,
2013-05-22 00:12:00,39.0,25.0,-100.00,SSE,163,3.0,5.0,57,0.00,,,0.11,,2013-05-22 06:12:00,
2013-05-22 00:21:00,39.0,25.0,-100.00,SSE,163,3.0,5.0,57,0.00,,,0.11,,2013-05-22 06:21:00,
2013-05-22 00:52:00,39.0,25.0,-100.00,South,180,7.0,9.0,56,0.00,,,0.11,,2013-05-22 06:52:00,
2013-05-22 01:01:00,39.0,25.0,-100.00,South,180,7.0,9.0,56,0.00,,,0.11,,2013-05-22 07:01:00,
2013-05-22 01:11:00,39.0,25.0,-100.00,South,180,7.0,9.0,56,0.00,,,0.11,,2013-05-22 07:11:00,
2013-05-22 01:21:00,39.0,25.0,-100.00,South,180,7.0,9.0,56,0.00,,,0.11,,2013-05-22 07:21:00,
2013-05-22 01:53:00,39.0,25.0,-100.00,South,189,8.0,11.0,56,0.00,,,0.11,,2013-05-22 07:53:00,
2013-05-22 02:02:00,39.0,25.0,-100.00,South,189,8.0,11.0,56,0.00,,,0.11,,2013-05-22 08:02:00,
2013-05-22 02:11:00,39.0,25.0,-100.00,South,189,8.0,11.0,56,0.00,,,0.11,,2013-05-22 08:11:00,
2013-05-22 02:22:00,39.0,25.0,-100.00,South,189,8.0,11.0,56,0.00,,,0.11,,2013-05-22 08:22:00,
2013-05-22 02:52:00,39.0,24.0,-100.00,SSW,210,9.0,13.0,55,0.00,,,0.11,,2013-05-22 08:52:00,
2013-05-22 03:01:00,39.0,24.0,-100.00,SSW,210,9.0,13.0,55,0.00,,,0.11,,2013-05-22 09:01:00,
2013-05-22 03:12:00,39.0,24.0,-100.00,SSW,210,9.0,13.0,55,0.00,,,0.11,,2013-05-22 09:12:00,
2013-05-22 03:22:00,39.0,24.0,-100.00,SSW,210,9.0,13.0,55,0.00,,,0.11,,2013-05-22 09:22:00,
2013-05-22 03:53:00,39.0,24.0,-100.00,South,189,9.0,11.0,54,0.00,,,0.11,,2013-05-22 09:53:00,
2013-05-22 04:03:00,39.0,24.0,-100.00,South,189,9.0,11.0,54,0.00,,,0.11,,2013-05-22 10:03:00,
2013-05-22 04:12:00,39.0,24.0,-100.00,South,189,9.0,11.0,54,0.00,,,0.11,,2013-05-22 10:12:00,
2013-05-22 04:22:00,39.0,24.0,-100.00,South,189,9.0,11.0,54,0.00,,,0.11,,2013-05-22 10:22:00,
2013-05-22 04:53:00,39.0,23.0,-100.00,SW,230,5.0,11.0,52,0.00,,,0.11,,2013-05-22 10:53:00,
2013-05-22 05:02:00,39.0,23.0,-100.00,SW,230,5.0,11.0,52,0.00,,,0.11,,2013-05-22 11:02:00,
2013-05-22 05:11:00,39.0,23.0,-100.00,SW,230,5.0,11.0,52,0.00,,,0.11,,2013-05-22 11:11:00,
2013-05-22 05:22:00,39.0,23.0,-100.00,SW,230,5.0,11.0,52,0.00,,,0.11,,2013-05-22 11:22:00,
2013-05-22 05:53:00,38.0,23.0,-100.00,SW,229,3.0,8.0,55,0.00,,,0.11,,2013-05-22 11:53:00,
2013-05-22 06:02:00,38.0,23.0,-100.00,SW,229,3.0,8.0,55,0.00,,,0.11,,2013-05-22 12:02:00,
2013-05-22 06:12:00,38.0,23.0,-100.00,SW,229,3.0,8.0,55,0.00,,,0.11,,2013-05-22 12:12:00,
2013-05-22 06:22:00,38.0,23.0,-100.00,SW,229,3.0,8.0,55,0.00,,,0.11,,2013-05-22 12:22:00,
2013-05-22 06:52:00,41.0,25.0,-100.00,North,3,0.0,5.0,53,0.00,,,0.11,,2013-05-22 12:52:00,
2013-05-22 07:01:00,41.0,25.0,-100.00,North,3,0.0,5.0,53,0.00,,,0.11,,2013-05-22 13:01:00,
2013-05-22 07:11:00,41.0,25.0,-100.00,North,3,0.0,5.0,53,0.00,,,0.11,,2013-05-22 13:11:00,
2013-05-22 07:22:00,41.0,25.0,-100.00,North,3,0.0,5.0,53,0.00,,,0.11,,2013-05-22 13:22:00,
2013-05-22 07:52:00,47.0,23.0,-100.00,SW,218,3.0,6.0,38,0.00,,,-99.99,,2013-05-22 13:52:00,
2013-05-22 08:02:00,47.0,23.0,-100.00,SW,218,3.0,6.0,38,0.00,,,-99.99,,2013-05-22 14:02:00,
2013-05-22 08:11:00,47.0,23.0,-100.00,SW,218,3.0,6.0,38,0.00,,,-99.99,,2013-05-22 14:11:00,
2013-05-22 08:21:00,47.0,23.0,-100.00,SW,218,3.0,6.0,38,0.00,,,-99.99,,2013-05-22 14:21:00,
2013-05-22 08:53:00,50.0,21.0,-100.00,WSW,239,4.0,6.0,32,0.00,,,0.11,,2013-05-22 14:53:00,
2013-05-22 09:01:00,50.0,21.0,-100.00,WSW,239,4.0,6.0,32,0.00,,,0.11,,2013-05-22 15:01:00,
2013-05-22 09:11:00,50.0,21.0,-100.00,WSW,239,4.0,6.0,32,0.00,,,0.11,,2013-05-22 15:11:00,
2013-05-22 09:22:00,50.0,21.0,-100.00,WSW,239,4.0,6.0,32,0.00,,,0.11,,2013-05-22 15:22:00,
2013-05-22 09:53:00,52.0,23.0,-100.00,West,269,4.0,8.0,32,0.00,,,0.11,,2013-05-22 15:53:00,
2013-05-22 10:03:00,52.0,23.0,-100.00,West,269,4.0,8.0,32,0.00,,,0.11,,2013-05-22 16:03:00,
2013-05-22 10:12:00,52.0,23.0,-100.00,West,269,4.0,8.0,32,0.00,,,0.11,,2013-05-22 16:12:00,
2013-05-22 10:23:00,52.0,23.0,-100.00,West,269,4.0,8.0,32,0.00,,,0.11,,2013-05-22 16:23:00,
2013-05-22 10:52:00,53.0,25.0,-100.00,NW,326,7.0,12.0,33,0.00,,,0.07,,2013-05-22 16:52:00,
2013-05-22 11:02:00,53.0,25.0,-100.00,NW,326,7.0,12.0,33,0.00,,,0.07,,2013-05-22 17:02:00,
2013-05-22 11:11:00,53.0,25.0,-100.00,NW,326,7.0,12.0,33,0.00,,,0.07,,2013-05-22 17:11:00,
2013-05-22 11:23:00,53.0,25.0,-100.00,NW,326,7.0,12.0,33,0.00,,,0.07,,2013-05-22 17:23:00,
2013-05-22 11:54:00,52.0,23.0,-100.00,West,271,5.0,13.0,32,0.00,,,0.00,,2013-05-22 17:54:00,
2013-05-22 12:02:00,52.0,23.0,-100.00,West,271,5.0,13.0,32,0.00,,,0.00,,2013-05-22 18:02:00,
2013-05-22 12:14:00,52.0,23.0,-100.00,West,271,5.0,13.0,32,0.00,,,0.00,,2013-05-22 18:14:00,
2013-05-22 12:22:00,52.0,23.0,-100.00,West,271,5.0,13.0,32,0.00,,,0.00,,2013-05-22 18:22:00,
2013-05-22 12:52:00,53.0,22.0,-100.00,SW,234,8.0,15.0,30,0.00,,,0.00,,2013-05-22 18:52:00,
2013-05-22 13:02:00,53.0,22.0,-100.00,SW,234,8.0,15.0,30,0.00,,,0.00,,2013-05-22 19:02:00,
2013-05-22 13:11:00,53.0,22.0,-100.00,SW,234,8.0,15.0,30,0.00,,,0.00,,2013-05-22 19:11:00,
2013-05-22 13:21:00,53.0,22.0,-100.00,SW,234,8.0,15.0,30,0.00,,,0.00,,2013-05-22 19:21:00,
2013-05-22 13:52:00,57.0,21.0,-100.00,West,263,6.0,16.0,24,0.00,,,0.00,,2013-05-22 19:52:00,
2013-05-22 14:02:00,57.0,21.0,-100.00,West,263,6.0,16.0,24,0.00,,,0.00,,2013-05-22 20:02:00,
2013-05-22 14:11:00,57.0,21.0,-100.00,West,263,6.0,16.0,24,0.00,,,0.00,,2013-05-22 20:11:00,
2013-05-22 14:22:00,57.0,21.0,-100.00,West,263,6.0,16.0,24,0.00,,,0.00,,2013-05-22 20:22:00,
2013-05-22 14:52:00,56.0,21.0,-100.00,West,265,10.0,19.0,25,0.00,,,0.00,,2013-05-22 20:52:00,
2013-05-22 15:01:00,56.0,21.0,-100.00,West,265,10.0,19.0,25,0.00,,,0.00,,2013-05-22 21:01:00,
2013-05-22 15:11:00,56.0,21.0,-100.00,West,265,10.0,19.0,25,0.00,,,0.00,,2013-05-22 21:11:00,
2013-05-22 15:21:00,56.0,21.0,-100.00,West,265,10.0,19.0,25,0.00,,,0.00,,2013-05-22 21:21:00,
2013-05-22 15:53:00,58.0,19.0,-100.00,WSW,247,7.0,15.0,22,0.00,,,0.00,,2013-05-22 21:53:00,
2013-05-22 16:03:00,58.0,19.0,-100.00,WSW,247,7.0,15.0,22,0.00,,,0.00,,2013-05-22 22:03:00,
2013-05-22 16:13:00,58.0,19.0,-100.00,WSW,247,7.0,15.0,22,0.00,,,0.00,,2013-05-22 22:13:00,
2013-05-22 16:22:00,58.0,19.0,-100.00,WSW,247,7.0,15.0,22,0.00,,,0.00,,2013-05-22 22:22:00,
2013-05-22 16:52:00,59.0,18.0,-100.00,WSW,249,8.0,19.0,20,0.00,,,0.00,,2013-05-22 22:52:00,
2013-05-22 17:02:00,59.0,18.0,-100.00,WSW,249,8.0,19.0,20,0.00,,,0.00,,2013-05-22 23:02:00,
2013-05-22 17:12:00,59.0,18.0,-100.00,WSW,249,8.0,19.0,20,0.00,,,0.00,,2013-05-22 23:12:00,
2013-05-22 17:21:00,59.0,18.0,-100.00,WSW,249,8.0,19.0,20,0.00,,,0.00,,2013-05-22 23:21:00,
2013-05-22 17:53:00,55.0,18.0,-100.00,WSW,240,10.0,20.0,23,0.00,,,0.00,,2013-05-22 23:53:00,
2013-05-22 18:01:00,55.0,18.0,-100.00,WSW,240,10.0,20.0,23,0.00,,,0.00,,2013-05-23 00:01:00,
2013-05-22 18:11:00,55.0,18.0,-100.00,WSW,240,10.0,20.0,23,0.00,,,0.00,,2013-05-23 00:11:00,
2013-05-22 18:22:00,55.0,18.0,-100.00,WSW,240,10.0,20.0,23,0.00,,,0.00,,2013-05-23 00:22:00,
2013-05-22 18:52:00,59.0,19.0,-100.00,WSW,254,7.0,15.0,21,0.00,,,0.00,,2013-05-23 00:52:00,
2013-05-22 19:01:00,59.0,19.0,-100.00,WSW,254,7.0,15.0,21,0.00,,,0.00,,2013-05-23 01:01:00,
2013-05-22 19:11:00,59.0,19.0,-100.00,WSW,254,7.0,15.0,21,0.00,,,0.00,,2013-05-23 01:11:00,
2013-05-22 19:22:00,59.0,19.0,-100.00,WSW,254,7.0,15.0,21,0.00,,,0.00,,2013-05-23 01:22:00,
2013-05-22 19:52:00,48.0,27.0,-100.00,SSE,149,15.0,22.0,43,0.00,,,0.00,,2013-05-23 01:52:00,
2013-05-22 20:02:00,48.0,27.0,-100.00,SSE,149,15.0,22.0,43,0.00,,,0.00,,2013-05-23 02:02:00,
2013-05-22 20:11:00,48.0,27.0,-100.00,SSE,149,15.0,22.0,43,0.00,,,0.00,,2013-05-23 02:11:00,
2013-05-22 20:21:00,48.0,27.0,-100.00,SSE,149,15.0,22.0,43,0.00,,,0.00,,2013-05-23 02:21:00,
2013-05-22 21:02:00,46.0,26.0,-100.00,SSE,155,20.0,32.0,46,0.00,,,0.00,,2013-05-23 03:02:00,
2013-05-22 21:11:00,46.0,26.0,-100.00,SSE,155,20.0,32.0,46,0.00,,,0.00,,2013-05-23 03:11:00,
2013-05-22 21:21:00,46.0,26.0,-100.00,SSE,155,20.0,32.0,46,0.00,,,0.00,,2013-05-23 03:21:00,
2013-05-22 21:53:00,45.0,26.0,-100.00,SSE,167,18.0,25.0,47,0.00,,,0.00,,2013-05-23 03:53:00,
2013-05-22 22:03:00,45.0,26.0,-100.00,SSE,167,18.0,25.0,47,0.00,,,0.00,,2013-05-23 04:03:00,
2013-05-22 22:12:00,45.0,26.0,-100.00,SSE,167,18.0,25.0,47,0.00,,,0.00,,2013-05-23 04:12:00,
2013-05-22 22:22:00,45.0,26.0,-100.00,SSE,167,18.0,25.0,47,0.00,,,0.00,,2013-05-23 04:22:00,
2013-05-22 22:52:00,45.0,27.0,-100.00,SSE,160,19.0,29.0,49,0.00,,,0.00,,2013-05-23 04:52:00,
2013-05-22 23:02:00,45.0,27.0,-100.00,SSE,160,19.0,29.0,49,0.00,,,0.00,,2013-05-23 05:02:00,
2013-05-22 23:11:00,45.0,27.0,-100.00,SSE,160,19.0,29.0,49,0.00,,,0.00,,2013-05-23 05:11:00,
2013-05-22 23:22:00,45.0,27.0,-100.00,SSE,160,19.0,29.0,49,0.00,,,0.00,,2013-05-23 05:22:00,
2013-05-22 23:52:00,46.0,26.0,-100.00,SSE,166,17.0,32.0,45,0.00,,,0.00,,2013-05-23 05:52:00,